createdAt,value
2022-09-20T00:01:28.081Z,75.86
2022-09-20T00:03:58.755Z,75.66
2022-09-20T00:06:30.614Z,75.93
2022-09-20T00:08:57.688Z,75.77
2022-09-20T00:11:26.988Z,75.99
2022-09-20T00:13:58.156Z,76.01
2022-09-20T00:16:27.693Z,76.12
2022-09-20T00:18:58.662Z,76.25
2022-09-20T00:21:28.220Z,76.32
2022-09-20T00:23:56.720Z,76.35
2022-09-20T00:26:23.745Z,76.28
2022-09-20T00:28:51.683Z,76.25
2022-09-20T00:31:18.509Z,76.67
2022-09-20T00:34:03.325Z,76.58
2022-09-20T00:36:30.077Z,76.42
2022-09-20T00:38:57.536Z,76.44
2022-09-20T00:41:24.419Z,76.74
2022-09-20T00:43:51.651Z,76.97
2022-09-20T00:46:34.547Z,77.00
2022-09-20T00:49:18.113Z,77.09
2022-09-20T00:51:52.051Z,77.16
2022-09-20T00:54:20.815Z,77.30
2022-09-20T00:56:48.444Z,77.50
2022-09-20T00:59:16.528Z,77.31
2022-09-20T01:01:46.205Z,77.13
2022-09-20T01:04:16.068Z,77.37
2022-09-20T01:06:45.403Z,77.05
2022-09-20T01:09:15.082Z,77.04
2022-09-20T01:11:41.949Z,76.95
2022-09-20T01:14:09.088Z,76.99
2022-09-20T01:16:37.394Z,76.85
2022-09-20T01:19:23.485Z,76.93
2022-09-20T01:21:53.444Z,76.99
2022-09-20T01:24:31.160Z,76.89
2022-09-20T01:27:00.294Z,76.75
2022-09-20T01:29:58.292Z,76.80
2022-09-20T01:32:36.010Z,76.80
2022-09-20T01:35:02.993Z,76.72
2022-09-20T01:37:47.186Z,76.72
2022-09-20T01:40:24.024Z,76.96
2022-09-20T01:43:15.046Z,76.92
2022-09-20T01:45:48.214Z,77.16
2022-09-20T01:48:37.527Z,77.34
2022-09-20T01:51:25.345Z,77.66
2022-09-20T01:54:19.594Z,78.08
2022-09-20T01:57:27.147Z,78.06
2022-09-20T02:00:08.416Z,78.04
2022-09-20T02:03:12.323Z,78.54
2022-09-20T02:06:09.611Z,78.37
2022-09-20T02:08:44.845Z,78.81
2022-09-20T02:11:15.009Z,78.77
2022-09-20T02:13:50.922Z,79.00
2022-09-20T02:16:38.529Z,79.21
2022-09-20T02:19:07.756Z,79.17
2022-09-20T02:21:43.212Z,79.66
2022-09-20T02:24:30.070Z,79.96
2022-09-20T02:26:59.535Z,80.07
2022-09-20T02:29:57.127Z,80.26
2022-09-20T02:32:46.001Z,80.48
2022-09-20T02:35:25.574Z,80.54
2022-09-20T02:38:37.512Z,80.76
2022-09-20T02:41:41.512Z,80.83
2022-09-20T02:44:39.049Z,80.72
2022-09-20T02:47:36.670Z,80.92
2022-09-20T02:50:24.910Z,81.00
2022-09-20T02:53:45.405Z,81.19
2022-09-20T02:56:33.799Z,81.26
2022-09-20T02:59:33.756Z,81.50
2022-09-20T03:02:19.254Z,81.96
2022-09-20T03:05:07.361Z,81.98
2022-09-20T03:07:52.497Z,81.87
2022-09-20T03:10:38.682Z,81.81
2022-09-20T03:13:10.931Z,81.93
2022-09-20T03:16:09.159Z,81.99
2022-09-20T03:18:54.591Z,82.07
2022-09-20T03:21:42.195Z,82.15
2022-09-20T03:24:34.455Z,82.23
2022-09-20T03:27:07.513Z,82.07
2022-09-20T03:29:41.576Z,81.87
2022-09-20T03:32:25.001Z,81.94
2022-09-20T03:35:07.933Z,82.07
2022-09-20T03:38:15.384Z,82.17
2022-09-20T03:40:59.751Z,82.11
2022-09-20T03:43:43.700Z,82.13
2022-09-20T03:46:25.299Z,82.20
2022-09-20T03:49:06.000Z,82.35
2022-09-20T03:51:41.416Z,82.33
2022-09-20T03:54:38.105Z,82.29
2022-09-20T03:57:34.497Z,82.37
2022-09-20T04:00:24.719Z,82.45
2022-09-20T04:03:12.876Z,82.53
2022-09-20T04:05:50.856Z,82.63
2022-09-20T04:08:26.220Z,82.59
2022-09-20T04:11:25.017Z,82.66
2022-09-20T04:14:32.985Z,82.64
2022-09-20T04:17:46.290Z,82.54
2022-09-20T04:20:21.236Z,82.78
2022-09-20T04:22:52.027Z,82.89
2022-09-20T04:25:23.752Z,82.72
2022-09-20T04:27:59.943Z,82.72
2022-09-20T04:30:37.437Z,82.54
2022-09-20T04:33:12.972Z,82.57
2022-09-20T04:36:10.202Z,82.55
2022-09-20T04:38:37.252Z,82.54
2022-09-20T04:41:21.921Z,82.66
2022-09-20T04:44:12.739Z,82.56
2022-09-20T04:47:16.473Z,82.72
2022-09-20T04:50:01.552Z,82.62
2022-09-20T04:52:39.190Z,82.96
2022-09-20T04:55:32.866Z,82.76
2022-09-20T04:58:18.913Z,82.68
2022-09-20T05:01:22.098Z,82.82
2022-09-20T05:04:26.036Z,82.83
2022-09-20T05:07:30.312Z,83.04
2022-09-20T05:10:36.609Z,83.19
2022-09-20T05:13:43.275Z,82.99
2022-09-20T05:16:29.643Z,83.03
2022-09-20T05:19:07.980Z,83.12
2022-09-20T05:21:55.434Z,83.07
2022-09-20T05:24:42.574Z,82.98
2022-09-20T05:27:19.610Z,82.59
2022-09-20T05:30:26.046Z,82.70
2022-09-20T05:33:02.009Z,82.75
2022-09-20T05:35:40.750Z,82.48
2022-09-20T05:38:45.433Z,82.74
2022-09-20T05:41:23.674Z,82.63
2022-09-20T05:44:08.280Z,82.72
2022-09-20T05:46:47.941Z,82.51
2022-09-20T05:49:38.502Z,82.50
2022-09-20T05:52:20.600Z,82.47
2022-09-20T05:55:28.295Z,82.49
2022-09-20T05:58:23.106Z,82.35
2022-09-20T06:01:02.650Z,82.64
2022-09-20T06:03:41.778Z,82.82
2022-09-20T06:06:39.652Z,82.78
2022-09-20T06:09:09.167Z,82.61
2022-09-20T06:12:26.084Z,82.65
2022-09-20T06:15:14.056Z,82.63
2022-09-20T06:18:01.701Z,83.02
2022-09-20T06:21:12.829Z,83.20
2022-09-20T06:23:39.688Z,83.10
2022-09-20T06:26:17.271Z,83.12
2022-09-20T06:28:54.148Z,83.35
2022-09-20T06:31:22.847Z,83.50
2022-09-20T06:34:11.146Z,83.64
2022-09-20T06:37:03.501Z,83.29
2022-09-20T06:39:59.514Z,82.87
2022-09-20T06:42:27.254Z,82.75
2022-09-20T06:44:55.589Z,82.72
2022-09-20T06:47:23.301Z,82.46
2022-09-20T06:49:50.454Z,82.68
2022-09-20T06:52:22.617Z,82.73
2022-09-20T06:54:54.099Z,82.67
2022-09-20T06:57:40.046Z,82.62
2022-09-20T07:00:10.102Z,82.46
2022-09-20T07:02:36.465Z,82.59
2022-09-20T07:05:02.959Z,82.47
2022-09-20T07:07:29.285Z,82.07
2022-09-20T07:09:57.958Z,82.00
2022-09-20T07:12:25.530Z,81.56
2022-09-20T07:14:51.978Z,81.24
2022-09-20T07:17:18.480Z,81.14
2022-09-20T07:19:44.822Z,80.97
2022-09-20T07:22:11.289Z,80.95
2022-09-20T07:24:37.664Z,81.29
2022-09-20T07:27:05.363Z,81.44
2022-09-20T07:29:31.765Z,81.37
2022-09-20T07:31:58.600Z,80.77
2022-09-20T07:34:25.629Z,79.73
2022-09-20T07:36:52.229Z,79.17
2022-09-20T07:39:18.787Z,78.56
2022-09-20T07:41:48.527Z,78.03
2022-09-20T07:44:21.490Z,77.79
2022-09-20T07:46:49.381Z,77.87
2022-09-20T07:49:15.928Z,77.94
2022-09-20T07:51:42.467Z,78.35
2022-09-20T07:54:09.193Z,78.34
2022-09-20T07:56:35.554Z,78.33
2022-09-20T07:59:01.928Z,78.26
2022-09-20T08:01:28.376Z,78.53
2022-09-20T08:03:55.279Z,78.89
2022-09-20T08:06:21.866Z,79.11
2022-09-20T08:08:49.273Z,79.32
2022-09-20T08:11:19.047Z,79.40
2022-09-20T08:14:07.099Z,78.58
2022-09-20T08:16:39.265Z,77.65
2022-09-20T08:19:05.797Z,77.48
2022-09-20T08:21:34.629Z,77.20
2022-09-20T08:24:01.837Z,77.04
2022-09-20T08:26:31.087Z,77.43
2022-09-20T08:28:59.773Z,77.74
2022-09-20T08:31:32.631Z,78.20
2022-09-20T08:34:02.924Z,78.20
2022-09-20T08:36:36.106Z,77.52
2022-09-20T08:42:13.108Z,76.34
2022-09-20T08:45:02.422Z,76.00
2022-09-20T08:47:35.665Z,76.10
2022-09-20T08:50:09.870Z,75.81
2022-09-20T08:52:40.035Z,75.22
2022-09-20T08:55:22.851Z,74.45
2022-09-20T08:57:52.982Z,74.22
2022-09-20T09:00:22.404Z,74.54
2022-09-20T09:02:51.699Z,73.59
2022-09-20T09:05:26.940Z,72.77
2022-09-20T09:07:53.402Z,72.41
2022-09-20T09:10:21.002Z,72.41
2022-09-20T09:12:48.991Z,72.97
2022-09-20T09:15:29.183Z,73.13
2022-09-20T09:17:56.138Z,72.35
2022-09-20T09:20:24.275Z,72.15
2022-09-20T09:23:09.374Z,70.36
2022-09-20T09:25:41.994Z,69.67
2022-09-20T09:28:08.282Z,68.65
2022-09-20T09:30:38.820Z,73.51
2022-09-20T09:33:14.271Z,75.29
2022-09-20T09:35:40.996Z,77.07
2022-09-20T09:38:24.076Z,77.89
2022-09-20T09:40:55.098Z,78.38
2022-09-20T09:43:30.063Z,78.65
2022-09-20T09:46:17.706Z,79.09
2022-09-20T09:48:50.024Z,79.40
2022-09-20T09:51:18.753Z,78.89
2022-09-20T09:53:47.296Z,77.51
2022-09-20T09:56:35.132Z,77.73
2022-09-20T09:59:25.205Z,76.95
2022-09-20T10:02:12.808Z,76.63
2022-09-20T10:04:57.393Z,75.76
2022-09-20T10:07:59.677Z,75.34
2022-09-20T10:10:32.395Z,75.10
2022-09-20T10:13:04.776Z,74.28
2022-09-20T10:15:52.591Z,73.47
2022-09-20T10:18:37.311Z,71.90
2022-09-20T10:21:28.599Z,70.37
2022-09-20T10:24:04.210Z,70.82
2022-09-20T10:26:49.414Z,69.23
2022-09-20T10:29:53.451Z,66.59
2022-09-20T10:32:31.662Z,65.85
2022-09-20T10:35:03.223Z,65.55
2022-09-20T10:37:49.053Z,65.31
2022-09-20T10:40:22.713Z,64.08
2022-09-20T10:43:16.958Z,62.36
2022-09-20T10:46:33.689Z,60.18
2022-09-20T10:49:16.632Z,60.83
2022-09-20T10:52:21.511Z,61.40
2022-09-20T10:55:06.428Z,61.15
2022-09-20T10:57:51.260Z,60.86
2022-09-20T11:00:23.789Z,60.46
2022-09-20T11:03:18.021Z,60.09
2022-09-20T11:06:12.310Z,57.86
2022-09-20T11:08:42.618Z,55.39
2022-09-20T11:11:16.983Z,55.13
2022-09-20T11:14:06.264Z,54.22
2022-09-20T11:17:12.582Z,53.60
2022-09-20T11:20:04.778Z,55.49
2022-09-20T11:23:21.305Z,55.07
2022-09-20T11:25:56.777Z,53.90
2022-09-20T11:28:36.604Z,54.03
2022-09-20T11:31:24.476Z,53.32
2022-09-20T11:34:00.448Z,52.50
2022-09-20T11:36:34.164Z,51.92
2022-09-20T11:39:10.693Z,52.03
2022-09-20T11:41:37.580Z,51.16
2022-09-20T11:44:12.450Z,51.60
2022-09-20T11:46:47.811Z,50.78
2022-09-20T11:49:21.103Z,51.06
2022-09-20T11:52:21.043Z,49.32
2022-09-20T11:55:05.476Z,49.82
2022-09-20T11:57:32.488Z,49.82
2022-09-20T12:00:05.004Z,50.00
2022-09-20T12:02:45.024Z,49.38
2022-09-20T12:05:25.432Z,49.66
2022-09-20T12:07:55.392Z,49.93
2022-09-20T12:10:25.648Z,49.49
2022-09-20T12:12:59.494Z,47.81
2022-09-20T12:15:40.027Z,48.51
2022-09-20T12:18:15.570Z,48.97
2022-09-20T12:20:45.015Z,49.56
2022-09-20T12:23:40.448Z,49.73
2022-09-20T12:26:13.449Z,50.01
2022-09-20T12:28:40.867Z,49.74
2022-09-20T12:31:33.425Z,49.14
2022-09-20T12:34:12.108Z,49.09
2022-09-20T12:37:05.402Z,50.42
2022-09-20T12:39:34.240Z,50.62
2022-09-20T12:42:06.298Z,50.54
2022-09-20T12:44:47.200Z,51.01
2022-09-20T12:47:13.467Z,50.94
2022-09-20T12:50:04.913Z,50.98
2022-09-20T12:53:00.533Z,51.01
2022-09-20T12:55:27.069Z,51.06
2022-09-20T12:58:03.644Z,49.92
2022-09-20T13:00:40.736Z,50.10
2022-09-20T13:03:11.140Z,50.31
2022-09-20T13:05:45.709Z,50.17
2022-09-20T13:08:13.152Z,50.34
2022-09-20T13:10:47.449Z,50.76
2022-09-20T13:13:39.505Z,50.62
2022-09-20T13:16:06.544Z,50.92
2022-09-20T13:18:35.294Z,51.66
2022-09-20T13:21:06.976Z,51.84
2022-09-20T13:23:45.345Z,52.28
2022-09-20T13:26:13.167Z,52.07
2022-09-20T13:28:49.030Z,51.91
2022-09-20T13:31:21.355Z,52.56
2022-09-20T13:33:48.415Z,52.10
2022-09-20T13:36:15.797Z,51.90
2022-09-20T13:38:43.229Z,51.93
2022-09-20T13:41:10.767Z,51.62
2022-09-20T13:43:41.194Z,51.12
2022-09-20T13:46:10.577Z,51.03
2022-09-20T13:48:40.695Z,51.45
2022-09-20T13:51:39.713Z,51.97
2022-09-20T13:54:28.450Z,52.00
2022-09-20T13:57:02.012Z,52.01
2022-09-20T13:59:33.980Z,51.98
2022-09-20T14:02:00.690Z,52.35
2022-09-20T14:04:32.433Z,52.13
2022-09-20T14:07:00.680Z,52.51
2022-09-20T14:09:35.036Z,52.60
2022-09-20T14:12:04.538Z,52.61
2022-09-20T14:14:33.181Z,52.16
2022-09-20T14:17:01.680Z,51.64
2022-09-20T14:19:37.343Z,52.00
2022-09-20T14:22:04.984Z,51.50
2022-09-20T14:24:35.740Z,51.28
2022-09-20T14:27:19.402Z,48.94
2022-09-20T14:29:48.920Z,50.02
2022-09-20T14:32:18.486Z,50.00
2022-09-20T14:34:58.832Z,48.66
2022-09-20T14:37:27.098Z,49.68
2022-09-20T14:39:56.767Z,49.89
2022-09-20T14:42:36.798Z,50.31
2022-09-20T14:45:05.828Z,50.51
2022-09-20T14:47:52.527Z,50.91
2022-09-20T14:50:34.189Z,50.76
2022-09-20T14:53:21.879Z,50.25
2022-09-20T14:56:10.335Z,50.79
2022-09-20T14:59:05.487Z,49.93
2022-09-20T15:01:33.187Z,50.20
2022-09-20T15:04:07.555Z,50.58
2022-09-20T15:06:39.911Z,50.71
2022-09-20T15:09:09.072Z,50.39
2022-09-20T15:11:35.594Z,50.36
2022-09-20T15:14:01.947Z,50.24
2022-09-20T15:16:29.470Z,50.25
2022-09-20T15:18:56.291Z,49.52
2022-09-20T15:21:22.714Z,49.91
2022-09-20T15:23:49.126Z,50.55
2022-09-20T15:26:16.583Z,50.62
2022-09-20T15:28:43.059Z,51.21
2022-09-20T15:31:10.866Z,50.98
2022-09-20T15:33:37.923Z,50.93
2022-09-20T15:36:05.489Z,51.48
2022-09-20T15:38:32.136Z,51.41
2022-09-20T15:41:03.360Z,51.46
2022-09-20T15:43:30.948Z,52.27
2022-09-20T15:46:30.900Z,52.23
2022-09-20T15:49:00.705Z,52.55
2022-09-20T15:51:28.448Z,53.00
2022-09-20T15:53:57.367Z,53.36
2022-09-20T15:56:30.231Z,52.79
2022-09-20T15:58:59.397Z,53.05
2022-09-20T16:01:38.070Z,53.82
2022-09-20T16:04:06.729Z,53.26
2022-09-20T16:06:34.244Z,53.14
2022-09-20T16:09:02.216Z,53.08
2022-09-20T16:11:28.848Z,52.43
2022-09-20T16:14:00.002Z,52.55
2022-09-20T16:16:36.114Z,52.48
2022-09-20T16:19:17.748Z,53.04
2022-09-20T16:21:57.677Z,52.60
2022-09-20T16:24:33.519Z,52.71
2022-09-20T16:27:01.785Z,52.48
2022-09-20T16:29:30.030Z,52.90
2022-09-20T16:31:58.728Z,53.63
2022-09-20T16:34:29.813Z,53.34
2022-09-20T16:37:06.697Z,53.14
2022-09-20T16:39:33.421Z,53.52
2022-09-20T16:42:04.427Z,54.02
2022-09-20T16:44:42.607Z,54.56
2022-09-20T16:47:13.094Z,54.65
2022-09-20T16:49:39.638Z,55.14
2022-09-20T16:52:08.814Z,55.68
2022-09-20T16:54:35.493Z,55.84
2022-09-20T16:57:02.550Z,55.55
2022-09-20T16:59:29.180Z,55.91
2022-09-20T17:01:55.741Z,56.16
2022-09-20T17:04:22.220Z,56.55
2022-09-20T17:06:50.209Z,56.79
2022-09-20T17:09:16.922Z,56.58
2022-09-20T17:11:47.089Z,56.85
2022-09-20T17:14:16.413Z,57.01
2022-09-20T17:16:43.653Z,56.80
2022-09-20T17:19:12.927Z,57.03
2022-09-20T17:21:43.601Z,57.34
2022-09-20T17:24:10.233Z,57.29
2022-09-20T17:26:43.512Z,57.68
2022-09-20T17:29:13.717Z,57.97
2022-09-20T17:31:43.977Z,58.34
2022-09-20T17:34:12.074Z,58.56
2022-09-20T17:36:41.830Z,59.09
2022-09-20T17:39:12.889Z,58.90
2022-09-20T17:41:41.168Z,59.43
2022-09-20T17:44:11.866Z,59.73
2022-09-20T17:46:40.422Z,60.13
2022-09-20T17:49:09.936Z,60.10
2022-09-20T17:51:40.675Z,60.48
2022-09-20T17:54:08.341Z,60.82
2022-09-20T17:56:35.372Z,61.15
2022-09-20T17:59:04.416Z,61.84
2022-09-20T18:01:32.655Z,61.95
2022-09-20T18:04:01.263Z,62.33
2022-09-20T18:06:33.704Z,62.63
2022-09-20T18:09:02.815Z,62.92
2022-09-20T18:11:34.356Z,63.23
2022-09-20T18:14:05.200Z,63.65
2022-09-20T18:16:33.669Z,63.79
2022-09-20T18:19:00.527Z,64.18
2022-09-20T18:21:29.818Z,64.75
2022-09-20T18:23:58.189Z,65.14
2022-09-20T18:26:27.990Z,65.84
2022-09-20T18:29:16.586Z,66.76
2022-09-20T18:31:46.337Z,67.25
2022-09-20T18:34:18.478Z,67.64
2022-09-20T18:36:54.060Z,67.82
2022-09-20T18:39:25.415Z,67.98
2022-09-20T18:41:53.207Z,68.36
2022-09-20T18:44:23.438Z,68.53
2022-09-20T18:46:52.905Z,69.02
2022-09-20T18:49:21.470Z,69.77
2022-09-20T18:51:49.120Z,70.41
2022-09-20T18:54:16.113Z,70.69
2022-09-20T18:56:47.259Z,71.04
2022-09-20T18:59:22.581Z,71.51
2022-09-20T19:01:55.210Z,71.91
2022-09-20T19:04:51.753Z,72.07
2022-09-20T19:07:27.062Z,72.52
2022-09-20T19:10:03.189Z,72.66
2022-09-20T19:12:57.787Z,72.92
2022-09-20T19:15:38.748Z,73.02
2022-09-20T19:18:39.076Z,73.39
2022-09-20T19:21:45.438Z,73.42
2022-09-20T19:24:27.892Z,73.71
2022-09-20T19:26:56.789Z,73.40
2022-09-20T19:29:26.666Z,73.22
2022-09-20T19:31:56.003Z,73.04
2022-09-20T19:34:26.646Z,72.89
2022-09-20T19:37:18.423Z,73.14
2022-09-20T19:39:56.946Z,73.28
2022-09-20T19:42:36.333Z,73.04
2022-09-20T19:45:20.477Z,73.01
2022-09-20T19:48:32.079Z,72.91
2022-09-20T19:51:03.811Z,72.96
2022-09-20T19:53:30.649Z,72.83
2022-09-20T19:56:03.162Z,72.83
2022-09-20T19:58:29.877Z,73.09
2022-09-20T20:00:57.904Z,73.41
2022-09-20T20:03:26.293Z,73.41
2022-09-20T20:06:16.785Z,73.65
2022-09-20T20:08:52.673Z,73.86
2022-09-20T20:11:45.163Z,74.01
2022-09-20T20:14:35.218Z,73.72
2022-09-20T20:17:16.977Z,73.43
2022-09-20T20:19:53.677Z,73.55
2022-09-20T20:23:00.785Z,73.72
2022-09-20T20:25:51.603Z,73.64
2022-09-20T20:28:17.919Z,73.18
2022-09-20T20:30:44.502Z,72.96
2022-09-20T20:33:15.867Z,73.07
2022-09-20T20:35:42.429Z,72.69
2022-09-20T20:38:10.677Z,72.75
2022-09-20T20:40:37.789Z,72.64
2022-09-20T20:43:06.077Z,72.47
2022-09-20T20:45:35.362Z,72.54
2022-09-20T20:48:02.026Z,72.47
2022-09-20T20:50:30.735Z,72.26
2022-09-20T20:52:57.321Z,72.68
2022-09-20T20:55:24.578Z,72.71
2022-09-20T20:57:58.410Z,72.73
2022-09-20T21:00:28.397Z,72.83
2022-09-20T21:03:02.679Z,72.77
2022-09-20T21:05:29.572Z,72.71
2022-09-20T21:07:58.965Z,72.91
2022-09-20T21:10:25.928Z,72.77
2022-09-20T21:12:58.168Z,72.73
2022-09-20T21:15:24.656Z,73.08
2022-09-20T21:17:54.907Z,73.11
2022-09-20T21:20:24.147Z,73.04
2022-09-20T21:22:50.584Z,72.83
2022-09-20T21:25:17.079Z,72.82
2022-09-20T21:27:43.604Z,73.00
2022-09-20T21:30:11.479Z,72.97
2022-09-20T21:32:37.936Z,73.19
2022-09-20T21:35:04.919Z,73.68
2022-09-20T21:37:31.233Z,74.12
2022-09-20T21:39:57.783Z,74.76
2022-09-20T21:42:27.119Z,75.09
2022-09-20T21:44:53.466Z,75.13
2022-09-20T21:47:20.520Z,75.33
2022-09-20T21:49:47.573Z,75.48
2022-09-20T21:52:14.239Z,75.56
2022-09-20T21:54:40.636Z,75.42
2022-09-20T21:57:07.367Z,75.79
2022-09-20T21:59:33.723Z,75.53
2022-09-20T22:02:00.154Z,75.29
2022-09-20T22:04:29.262Z,75.21
2022-09-20T22:06:55.664Z,75.25
2022-09-20T22:09:24.045Z,75.48
2022-09-20T22:11:50.904Z,75.68
2022-09-20T22:14:19.489Z,76.04
2022-09-20T22:16:47.474Z,76.38
2022-09-20T22:19:16.801Z,76.54
2022-09-20T22:21:45.728Z,76.58
2022-09-20T22:24:14.331Z,76.64
2022-09-20T22:26:42.998Z,76.78
2022-09-20T22:29:09.824Z,76.74
2022-09-20T22:31:41.350Z,77.21
2022-09-20T22:34:13.156Z,77.33
2022-09-20T22:36:41.511Z,77.58
2022-09-20T22:39:10.570Z,77.61
2022-09-20T22:41:39.530Z,77.74
2022-09-20T22:44:06.186Z,77.92
2022-09-20T22:46:33.769Z,77.84
2022-09-20T22:49:00.553Z,78.28
2022-09-20T22:51:29.718Z,78.33
2022-09-20T22:53:56.480Z,78.42
2022-09-20T22:56:25.628Z,78.73
2022-09-20T22:58:55.130Z,78.23
2022-09-20T23:01:24.348Z,78.39
2022-09-20T23:04:06.289Z,78.43
2022-09-20T23:06:41.151Z,78.38
2022-09-20T23:09:10.173Z,78.72
2022-09-20T23:11:37.830Z,78.46
2022-09-20T23:14:05.951Z,78.13
2022-09-20T23:16:35.666Z,78.58
2022-09-20T23:19:03.627Z,78.41
2022-09-20T23:21:31.037Z,78.78
2022-09-20T23:24:02.996Z,78.60
2022-09-20T23:26:31.627Z,78.84
2022-09-20T23:29:02.242Z,78.80
2022-09-20T23:31:32.545Z,78.73
2022-09-20T23:34:03.408Z,78.62
2022-09-20T23:36:34.858Z,78.68
2022-09-20T23:39:03.973Z,78.62
2022-09-20T23:41:31.034Z,78.80
2022-09-20T23:43:57.810Z,78.65
2022-09-20T23:46:26.257Z,78.58
2022-09-20T23:48:53.227Z,78.56
2022-09-20T23:51:23.818Z,78.80
2022-09-20T23:53:52.078Z,78.90
2022-09-20T23:56:19.837Z,79.19
2022-09-20T23:58:46.820Z,79.33
